sensor_id;sensor_type;location;lat;lon;timestamp;pressure;altitude;pressure_sealevel;temperature;humidity
53940;BME280;39850;43.324;21.916;2023-08-21T00:00:44;994.0;;;20.8;75.0
53940;BME280;39850;43.324;21.916;2023-08-21T00:05:21;994.0;;;20.4;76.0
53940;BME280;39850;43.324;21.916;2023-08-21T00:09:58;994.0;;;20.4;76.0
53940;BME280;39850;43.324;21.916;2023-08-21T00:14:35;994.0;;;19.8;77.0
53940;BME280;39850;43.324;21.916;2023-08-21T00:19:12;994.0;;;19.8;77.0
53940;BME280;39850;43.324;21.916;2023-08-21T00:56:05;994.0;;;19.8;77.0
53940;BME280;39850;43.324;21.916;2023-08-21T01:00:49;994.0;;;19.8;77.0
53940;BME280;39850;43.324;21.916;2023-08-21T01:05:28;994.0;;;19.8;77.0
53940;BME280;39850;43.324;21.916;2023-08-21T01:10:41;994.0;;;19.8;77.0
53940;BME280;39850;43.324;21.916;2023-08-21T01:15:27;994.0;;;19.9;78.0
53940;BME280;39850;43.324;21.916;2023-08-21T01:20:10;994.0;;;19.9;78.0
53940;BME280;39850;43.324;21.916;2023-08-21T01:24:47;994.0;;;20.0;78.0
53940;BME280;39850;43.324;21.916;2023-08-21T01:29:24;994.0;;;20.0;78.0
53940;BME280;39850;43.324;21.916;2023-08-21T01:34:11;995.0;;;20.0;78.0
53940;BME280;39850;43.324;21.916;2023-08-21T01:38:52;995.0;;;20.0;78.0
53940;BME280;39850;43.324;21.916;2023-08-21T02:15:46;995.0;;;18.9;80.0
53940;BME280;39850;43.324;21.916;2023-08-21T02:20:22;995.0;;;18.9;80.0
53940;BME280;39850;43.324;21.916;2023-08-21T02:24:59;995.0;;;19.0;81.0
53940;BME280;39850;43.324;21.916;2023-08-21T02:29:36;995.0;;;19.0;81.0
53940;BME280;39850;43.324;21.916;2023-08-21T02:34:12;995.0;;;18.9;81.0
53940;BME280;39850;43.324;21.916;2023-08-21T02:38:50;995.0;;;18.9;81.0
53940;BME280;39850;43.324;21.916;2023-08-21T02:43:26;995.0;;;19.0;81.0
53940;BME280;39850;43.324;21.916;2023-08-21T02:48:05;995.0;;;19.0;81.0
53940;BME280;39850;43.324;21.916;2023-08-21T02:52:42;995.0;;;19.0;81.0
53940;BME280;39850;43.324;21.916;2023-08-21T02:57:19;995.0;;;18.9;81.0
53940;BME280;39850;43.324;21.916;2023-08-21T03:01:55;995.0;;;18.9;81.0
53940;BME280;39850;43.324;21.916;2023-08-21T03:34:12;995.0;;;19.0;81.0
53940;BME280;39850;43.324;21.916;2023-08-21T03:38:48;995.0;;;19.0;81.0
53940;BME280;39850;43.324;21.916;2023-08-21T03:43:25;995.0;;;19.0;81.0
53940;BME280;39850;43.324;21.916;2023-08-21T03:48:04;995.0;;;19.0;82.0
53940;BME280;39850;43.324;21.916;2023-08-21T03:52:41;995.0;;;19.0;82.0
53940;BME280;39850;43.324;21.916;2023-08-21T03:57:18;995.0;;;19.1;82.0
53940;BME280;39850;43.324;21.916;2023-08-21T04:01:55;995.0;;;19.1;82.0
53940;BME280;39850;43.324;21.916;2023-08-21T04:06:31;995.0;;;19.1;83.0
53940;BME280;39850;43.324;21.916;2023-08-21T04:11:10;995.0;;;19.1;83.0
53940;BME280;39850;43.324;21.916;2023-08-21T04:15:49;995.0;;;19.1;83.0
53940;BME280;39850;43.324;21.916;2023-08-21T04:20:26;995.0;;;19.1;83.0
53940;BME280;39850;43.324;21.916;2023-08-21T04:57:21;995.0;;;18.8;83.0
53940;BME280;39850;43.324;21.916;2023-08-21T05:01:57;995.0;;;18.8;83.0
53940;BME280;39850;43.324;21.916;2023-08-21T05:06:34;995.0;;;18.9;82.0
53940;BME280;39850;43.324;21.916;2023-08-21T05:11:10;995.0;;;18.9;82.0
53940;BME280;39850;43.324;21.916;2023-08-21T05:15:55;995.0;;;19.0;81.0
53940;BME280;39850;43.324;21.916;2023-08-21T05:20:32;995.0;;;19.0;81.0
53940;BME280;39850;43.324;21.916;2023-08-21T05:25:11;995.0;;;19.2;81.0
53940;BME280;39850;43.324;21.916;2023-08-21T05:29:48;995.0;;;19.2;81.0
53940;BME280;39850;43.324;21.916;2023-08-21T05:34:25;995.0;;;19.5;81.0
53940;BME280;39850;43.324;21.916;2023-08-21T05:39:07;995.0;;;19.5;81.0
53940;BME280;39850;43.324;21.916;2023-08-21T05:43:44;995.0;;;19.5;81.0
53940;BME280;39850;43.324;21.916;2023-08-21T06:16:04;996.0;;;24.4;64.0
53940;BME280;39850;43.324;21.916;2023-08-21T06:20:43;996.0;;;24.4;64.0
53940;BME280;39850;43.324;21.916;2023-08-21T06:25:20;996.0;;;24.9;64.0
53940;BME280;39850;43.324;21.916;2023-08-21T06:29:57;996.0;;;24.9;64.0
53940;BME280;39850;43.324;21.916;2023-08-21T06:34:34;996.0;;;25.4;63.0
53940;BME280;39850;43.324;21.916;2023-08-21T06:39:11;996.0;;;25.4;63.0
53940;BME280;39850;43.324;21.916;2023-08-21T06:43:48;996.0;;;25.4;63.0
53940;BME280;39850;43.324;21.916;2023-08-21T06:48:24;996.0;;;25.8;62.0
53940;BME280;39850;43.324;21.916;2023-08-21T06:53:01;996.0;;;25.8;62.0
53940;BME280;39850;43.324;21.916;2023-08-21T06:57:38;996.0;;;26.2;61.0
53940;BME280;39850;43.324;21.916;2023-08-21T07:02:15;996.0;;;26.2;61.0
53940;BME280;39850;43.324;21.916;2023-08-21T07:34:32;996.0;;;29.0;52.0
53940;BME280;39850;43.324;21.916;2023-08-21T07:39:08;996.0;;;29.0;52.0
53940;BME280;39850;43.324;21.916;2023-08-21T07:43:45;996.0;;;29.0;52.0
53940;BME280;39850;43.324;21.916;2023-08-21T07:48:21;996.0;;;29.2;52.0
53940;BME280;39850;43.324;21.916;2023-08-21T07:52:58;996.0;;;29.2;52.0
53940;BME280;39850;43.324;21.916;2023-08-21T07:57:35;995.0;;;29.5;52.0
53940;BME280;39850;43.324;21.916;2023-08-21T08:02:11;995.0;;;29.5;52.0
53940;BME280;39850;43.324;21.916;2023-08-21T08:06:48;995.0;;;29.8;51.0
53940;BME280;39850;43.324;21.916;2023-08-21T08:11:26;995.0;;;29.8;51.0
53940;BME280;39850;43.324;21.916;2023-08-21T08:16:03;995.0;;;30.0;52.0
53940;BME280;39850;43.324;21.916;2023-08-21T08:20:41;995.0;;;30.0;52.0
53940;BME280;39850;43.324;21.916;2023-08-21T08:57:40;995.0;;;30.5;51.0
53940;BME280;39850;43.324;21.916;2023-08-21T09:02:18;995.0;;;30.5;51.0
53940;BME280;39850;43.324;21.916;2023-08-21T09:07:09;995.0;;;30.4;51.0
53940;BME280;39850;43.324;21.916;2023-08-21T09:11:48;995.0;;;30.4;51.0
53940;BME280;39850;43.324;21.916;2023-08-21T09:16:27;995.0;;;30.5;52.0
53940;BME280;39850;43.324;21.916;2023-08-21T09:21:05;995.0;;;30.5;52.0
53940;BME280;39850;43.324;21.916;2023-08-21T09:25:49;995.0;;;30.7;52.0
53940;BME280;39850;43.324;21.916;2023-08-21T09:30:25;995.0;;;30.7;52.0
53940;BME280;39850;43.324;21.916;2023-08-21T09:35:05;995.0;;;31.0;52.0
53940;BME280;39850;43.324;21.916;2023-08-21T09:39:42;995.0;;;31.0;52.0
53940;BME280;39850;43.324;21.916;2023-08-21T09:44:19;995.0;;;31.0;52.0
53940;BME280;39850;43.324;21.916;2023-08-21T10:17:09;994.0;;;30.0;55.0
53940;BME280;39850;43.324;21.916;2023-08-21T10:21:49;994.0;;;30.0;55.0
53940;BME280;39850;43.324;21.916;2023-08-21T10:26:27;994.0;;;30.0;56.0
53940;BME280;39850;43.324;21.916;2023-08-21T10:31:35;994.0;;;30.0;56.0
53940;BME280;39850;43.324;21.916;2023-08-21T10:36:11;994.0;;;30.0;56.0
53940;BME280;39850;43.324;21.916;2023-08-21T10:41:08;994.0;;;30.0;56.0
53940;BME280;39850;43.324;21.916;2023-08-21T10:45:55;994.0;;;29.8;56.0
53940;BME280;39850;43.324;21.916;2023-08-21T10:50:32;994.0;;;29.8;56.0
53940;BME280;39850;43.324;21.916;2023-08-21T10:55:16;994.0;;;29.6;56.0
53940;BME280;39850;43.324;21.916;2023-08-21T11:00:02;994.0;;;29.6;56.0
53940;BME280;39850;43.324;21.916;2023-08-21T11:04:42;994.0;;;29.6;56.0
53940;BME280;39850;43.324;21.916;2023-08-21T11:37:07;994.0;;;29.1;59.0
53940;BME280;39850;43.324;21.916;2023-08-21T11:41:59;994.0;;;29.1;59.0
53940;BME280;39850;43.324;21.916;2023-08-21T11:46:36;994.0;;;29.0;59.0
53940;BME280;39850;43.324;21.916;2023-08-21T11:51:13;994.0;;;29.0;59.0
53940;BME280;39850;43.324;21.916;2023-08-21T11:55:51;993.0;;;29.0;59.0
53940;BME280;39850;43.324;21.916;2023-08-21T12:00:30;993.0;;;29.0;59.0
53940;BME280;39850;43.324;21.916;2023-08-21T12:05:15;993.0;;;29.0;58.0
53940;BME280;39850;43.324;21.916;2023-08-21T12:09:52;993.0;;;29.0;58.0
53940;BME280;39850;43.324;21.916;2023-08-21T12:14:29;993.0;;;29.0;58.0
53940;BME280;39850;43.324;21.916;2023-08-21T12:19:06;993.0;;;29.0;58.0
53940;BME280;39850;43.324;21.916;2023-08-21T12:23:43;993.0;;;29.0;58.0
53940;BME280;39850;43.324;21.916;2023-08-21T12:55:59;993.0;;;27.2;61.0
53940;BME280;39850;43.324;21.916;2023-08-21T13:00:36;993.0;;;27.2;61.0
53940;BME280;39850;43.324;21.916;2023-08-21T13:05:13;993.0;;;27.2;61.0
53940;BME280;39850;43.324;21.916;2023-08-21T13:09:50;993.0;;;27.2;61.0
53940;BME280;39850;43.324;21.916;2023-08-21T13:14:26;993.0;;;27.2;61.0
53940;BME280;39850;43.324;21.916;2023-08-21T13:19:03;993.0;;;27.1;62.0
53940;BME280;39850;43.324;21.916;2023-08-21T13:23:39;993.0;;;27.1;62.0
53940;BME280;39850;43.324;21.916;2023-08-21T13:28:16;993.0;;;27.1;62.0
53940;BME280;39850;43.324;21.916;2023-08-21T13:32:54;993.0;;;27.1;62.0
53940;BME280;39850;43.324;21.916;2023-08-21T13:37:31;993.0;;;27.1;62.0
53940;BME280;39850;43.324;21.916;2023-08-21T13:42:08;993.0;;;27.1;62.0
53940;BME280;39850;43.324;21.916;2023-08-21T14:19:01;993.0;;;27.1;65.0
53940;BME280;39850;43.324;21.916;2023-08-21T14:23:37;993.0;;;27.1;65.0
53940;BME280;39850;43.324;21.916;2023-08-21T14:28:14;993.0;;;27.2;66.0
53940;BME280;39850;43.324;21.916;2023-08-21T14:32:51;993.0;;;27.2;66.0
53940;BME280;39850;43.324;21.916;2023-08-21T14:37:28;993.0;;;27.2;65.0
53940;BME280;39850;43.324;21.916;2023-08-21T14:42:06;993.0;;;27.2;65.0
53940;BME280;39850;43.324;21.916;2023-08-21T14:46:43;993.0;;;27.6;66.0
53940;BME280;39850;43.324;21.916;2023-08-21T14:51:20;993.0;;;27.6;66.0
53940;BME280;39850;43.324;21.916;2023-08-21T14:55:57;993.0;;;28.1;65.0
53940;BME280;39850;43.324;21.916;2023-08-21T15:00:34;993.0;;;28.1;65.0
53940;BME280;39850;43.324;21.916;2023-08-21T15:05:11;993.0;;;28.1;65.0
53940;BME280;39850;43.324;21.916;2023-08-21T15:37:26;993.0;;;27.1;65.0
53940;BME280;39850;43.324;21.916;2023-08-21T15:42:03;993.0;;;27.1;65.0
53940;BME280;39850;43.324;21.916;2023-08-21T15:46:40;993.0;;;27.1;65.0
53940;BME280;39850;43.324;21.916;2023-08-21T15:51:16;993.0;;;27.1;65.0
53940;BME280;39850;43.324;21.916;2023-08-21T15:55:53;993.0;;;27.1;65.0
53940;BME280;39850;43.324;21.916;2023-08-21T16:00:29;992.0;;;27.1;66.0
53940;BME280;39850;43.324;21.916;2023-08-21T16:05:08;992.0;;;27.1;66.0
53940;BME280;39850;43.324;21.916;2023-08-21T16:09:45;992.0;;;27.1;66.0
53940;BME280;39850;43.324;21.916;2023-08-21T16:14:22;992.0;;;27.1;66.0
53940;BME280;39850;43.324;21.916;2023-08-21T16:18:59;992.0;;;27.1;66.0
53940;BME280;39850;43.324;21.916;2023-08-21T16:23:36;992.0;;;27.1;66.0
53940;BME280;39850;43.324;21.916;2023-08-21T17:00:29;993.0;;;26.2;64.0
53940;BME280;39850;43.324;21.916;2023-08-21T17:05:08;993.0;;;26.2;64.0
53940;BME280;39850;43.324;21.916;2023-08-21T17:09:49;993.0;;;26.2;65.0
53940;BME280;39850;43.324;21.916;2023-08-21T17:14:25;993.0;;;26.2;65.0
53940;BME280;39850;43.324;21.916;2023-08-21T17:19:02;993.0;;;26.3;65.0
53940;BME280;39850;43.324;21.916;2023-08-21T17:23:40;993.0;;;26.3;65.0
53940;BME280;39850;43.324;21.916;2023-08-21T17:28:16;993.0;;;26.4;66.0
53940;BME280;39850;43.324;21.916;2023-08-21T17:32:53;993.0;;;26.4;66.0
53940;BME280;39850;43.324;21.916;2023-08-21T17:37:30;993.0;;;26.4;66.0
53940;BME280;39850;43.324;21.916;2023-08-21T17:42:07;993.0;;;26.4;66.0
53940;BME280;39850;43.324;21.916;2023-08-21T18:19:00;993.0;;;25.5;70.0
53940;BME280;39850;43.324;21.916;2023-08-21T18:23:38;993.0;;;25.5;70.0
53940;BME280;39850;43.324;21.916;2023-08-21T18:28:15;993.0;;;25.5;70.0
53940;BME280;39850;43.324;21.916;2023-08-21T18:32:52;993.0;;;25.5;70.0
53940;BME280;39850;43.324;21.916;2023-08-21T18:37:28;993.0;;;25.5;70.0
53940;BME280;39850;43.324;21.916;2023-08-21T18:42:06;993.0;;;25.5;70.0
53940;BME280;39850;43.324;21.916;2023-08-21T18:46:43;994.0;;;25.5;70.0
53940;BME280;39850;43.324;21.916;2023-08-21T18:51:20;994.0;;;25.5;70.0
53940;BME280;39850;43.324;21.916;2023-08-21T18:55:56;994.0;;;25.5;70.0
53940;BME280;39850;43.324;21.916;2023-08-21T19:00:34;994.0;;;25.5;70.0
53940;BME280;39850;43.324;21.916;2023-08-21T19:05:11;994.0;;;25.5;70.0
53940;BME280;39850;43.324;21.916;2023-08-21T19:37:28;994.0;;;23.5;78.0
53940;BME280;39850;43.324;21.916;2023-08-21T19:42:06;994.0;;;23.5;78.0
53940;BME280;39850;43.324;21.916;2023-08-21T19:46:44;994.0;;;23.6;78.0
53940;BME280;39850;43.324;21.916;2023-08-21T19:51:20;994.0;;;23.6;78.0
53940;BME280;39850;43.324;21.916;2023-08-21T19:55:57;994.0;;;23.6;78.0
53940;BME280;39850;43.324;21.916;2023-08-21T20:00:34;994.0;;;23.6;78.0
53940;BME280;39850;43.324;21.916;2023-08-21T20:05:11;994.0;;;23.6;78.0
53940;BME280;39850;43.324;21.916;2023-08-21T20:09:47;994.0;;;23.6;78.0
53940;BME280;39850;43.324;21.916;2023-08-21T20:14:24;994.0;;;23.6;78.0
53940;BME280;39850;43.324;21.916;2023-08-21T20:19:01;994.0;;;23.7;78.0
53940;BME280;39850;43.324;21.916;2023-08-21T20:23:38;994.0;;;23.7;78.0
53940;BME280;39850;43.324;21.916;2023-08-21T21:00:34;994.0;;;22.8;81.0
53940;BME280;39850;43.324;21.916;2023-08-21T21:05:11;994.0;;;22.8;81.0
53940;BME280;39850;43.324;21.916;2023-08-21T21:09:48;994.0;;;22.6;82.0
53940;BME280;39850;43.324;21.916;2023-08-21T21:14:25;994.0;;;22.6;82.0
53940;BME280;39850;43.324;21.916;2023-08-21T21:19:02;994.0;;;22.6;82.0
53940;BME280;39850;43.324;21.916;2023-08-21T21:23:39;994.0;;;22.6;82.0
53940;BME280;39850;43.324;21.916;2023-08-21T21:28:15;994.0;;;22.6;82.0
53940;BME280;39850;43.324;21.916;2023-08-21T21:32:52;994.0;;;22.6;82.0
53940;BME280;39850;43.324;21.916;2023-08-21T21:37:29;994.0;;;22.6;82.0
53940;BME280;39850;43.324;21.916;2023-08-21T21:42:07;994.0;;;22.6;82.0
53940;BME280;39850;43.324;21.916;2023-08-21T21:46:44;994.0;;;22.6;82.0
53940;BME280;39850;43.324;21.916;2023-08-21T22:19:01;994.0;;;21.7;83.0
53940;BME280;39850;43.324;21.916;2023-08-21T22:23:37;994.0;;;21.7;83.0
53940;BME280;39850;43.324;21.916;2023-08-21T22:28:15;994.0;;;21.7;83.0
53940;BME280;39850;43.324;21.916;2023-08-21T22:32:51;994.0;;;21.7;83.0
53940;BME280;39850;43.324;21.916;2023-08-21T22:37:31;994.0;;;21.7;83.0
53940;BME280;39850;43.324;21.916;2023-08-21T22:42:09;994.0;;;21.7;83.0
53940;BME280;39850;43.324;21.916;2023-08-21T22:46:45;994.0;;;21.7;83.0
53940;BME280;39850;43.324;21.916;2023-08-21T22:51:22;994.0;;;21.8;84.0
53940;BME280;39850;43.324;21.916;2023-08-21T22:56:01;994.0;;;21.8;84.0
53940;BME280;39850;43.324;21.916;2023-08-21T23:00:38;994.0;;;21.8;84.0
53940;BME280;39850;43.324;21.916;2023-08-21T23:05:15;994.0;;;21.8;84.0
53940;BME280;39850;43.324;21.916;2023-08-21T23:37:34;994.0;;;21.8;85.0
53940;BME280;39850;43.324;21.916;2023-08-21T23:42:10;994.0;;;21.8;85.0
53940;BME280;39850;43.324;21.916;2023-08-21T23:46:47;994.0;;;21.8;85.0
53940;BME280;39850;43.324;21.916;2023-08-21T23:51:24;994.0;;;21.6;85.0
53940;BME280;39850;43.324;21.916;2023-08-21T23:56:01;994.0;;;21.6;85.0
